createdAt,value
2022-08-30T00:04:39.140Z,18.58
2022-08-30T00:09:45.089Z,18.45
2022-08-30T00:14:49.718Z,18.39
2022-08-30T00:19:55.836Z,18.38
2022-08-30T00:25:02.115Z,18.28
2022-08-30T00:30:09.221Z,18.33
2022-08-30T00:35:18.470Z,18.24
2022-08-30T00:40:27.652Z,18.19
2022-08-30T00:45:36.205Z,18.13
2022-08-30T00:50:47.025Z,17.96
2022-08-30T00:55:55.119Z,17.86
2022-08-30T01:01:02.589Z,17.79
2022-08-30T01:06:09.118Z,17.75
2022-08-30T01:11:18.508Z,17.65
2022-08-30T01:16:27.327Z,17.58
2022-08-30T01:21:42.557Z,17.54
2022-08-30T01:26:48.529Z,17.46
2022-08-30T01:31:53.485Z,17.50
2022-08-30T01:36:57.962Z,17.41
2022-08-30T01:42:05.868Z,17.38
2022-08-30T01:47:10.351Z,17.30
2022-08-30T01:52:16.210Z,17.19
2022-08-30T01:57:26.890Z,17.14
2022-08-30T02:02:31.785Z,17.14
2022-08-30T02:07:36.379Z,17.18
2022-08-30T02:12:42.650Z,17.21
2022-08-30T02:17:47.115Z,17.15
2022-08-30T02:22:51.527Z,17.10
2022-08-30T02:27:57.163Z,17.04
2022-08-30T02:33:01.573Z,17.00
2022-08-30T02:38:08.080Z,16.92
2022-08-30T02:43:14.073Z,16.81
2022-08-30T02:48:18.402Z,16.76
2022-08-30T02:53:22.940Z,16.66
2022-08-30T02:58:28.713Z,16.51
2022-08-30T03:03:35.596Z,16.56
2022-08-30T03:08:40.157Z,16.52
2022-08-30T03:13:45.825Z,16.45
2022-08-30T03:18:50.443Z,16.43
2022-08-30T03:23:54.683Z,16.37
2022-08-30T03:29:00.515Z,16.36
2022-08-30T03:34:06.423Z,16.38
2022-08-30T03:39:13.969Z,16.41
2022-08-30T03:44:20.025Z,16.27
2022-08-30T03:49:25.172Z,16.24
2022-08-30T03:54:32.531Z,16.16
2022-08-30T03:59:38.459Z,16.18
2022-08-30T04:04:42.794Z,16.12
2022-08-30T04:09:47.531Z,16.09
2022-08-30T04:14:53.510Z,16.10
2022-08-30T04:19:58.248Z,16.06
2022-08-30T04:25:02.527Z,15.99
2022-08-30T04:30:09.803Z,15.89
2022-08-30T04:35:15.192Z,15.87
2022-08-30T04:40:20.421Z,15.85
2022-08-30T04:45:26.543Z,15.86
2022-08-30T04:50:31.201Z,15.91
2022-08-30T04:55:35.644Z,15.98
2022-08-30T05:00:44.602Z,16.09
2022-08-30T05:05:50.152Z,16.18
2022-08-30T05:10:54.815Z,16.28
2022-08-30T05:16:01.322Z,16.40
2022-08-30T05:21:10.926Z,16.50
2022-08-30T05:26:19.139Z,16.61
2022-08-30T05:31:29.195Z,16.80
2022-08-30T05:36:37.814Z,17.04
2022-08-30T05:41:44.287Z,17.37
2022-08-30T05:46:50.207Z,17.64
2022-08-30T05:51:54.995Z,17.85
2022-08-30T05:56:59.407Z,18.04
2022-08-30T06:02:07.392Z,18.44
2022-08-30T06:07:14.861Z,18.78
2022-08-30T06:12:21.849Z,19.04
2022-08-30T06:17:27.755Z,19.28
2022-08-30T06:22:32.094Z,19.47
2022-08-30T06:27:36.393Z,19.55
2022-08-30T06:32:42.567Z,19.59
2022-08-30T06:37:46.927Z,19.80
2022-08-30T06:42:51.564Z,20.25
2022-08-30T06:53:07.904Z,20.85
2022-08-30T06:58:13.748Z,21.27
2022-08-30T07:03:19.521Z,21.83
2022-08-30T07:08:24.884Z,22.70
2022-08-30T07:13:30.241Z,23.06
2022-08-30T07:18:55.739Z,23.61
2022-08-30T07:24:02.289Z,24.56
2022-08-30T07:29:09.260Z,26.44
2022-08-30T07:34:15.145Z,28.41
2022-08-30T07:39:20.138Z,29.75
2022-08-30T07:44:25.686Z,30.09
2022-08-30T07:49:31.863Z,30.61
2022-08-30T07:54:37.657Z,30.45
2022-08-30T07:59:41.930Z,31.65
2022-08-30T08:04:48.569Z,33.19
2022-08-30T08:15:22.196Z,32.70
2022-08-30T08:20:28.143Z,32.27
2022-08-30T08:25:32.862Z,31.48
2022-08-30T08:30:41.593Z,30.99
2022-08-30T08:35:49.803Z,32.04
2022-08-30T08:41:06.403Z,33.60
2022-08-30T08:46:23.018Z,33.44
2022-08-30T08:52:04.451Z,34.04
2022-08-30T08:57:13.930Z,36.07
2022-08-30T09:02:28.530Z,36.69
2022-08-30T09:07:43.813Z,36.20
2022-08-30T09:12:48.346Z,36.62
2022-08-30T09:17:57.400Z,36.12
2022-08-30T09:23:30.632Z,36.59
2022-08-30T09:28:46.167Z,35.20
2022-08-30T09:33:57.944Z,35.03
2022-08-30T09:39:07.927Z,34.88
2022-08-30T09:44:19.668Z,36.40
2022-08-30T09:49:35.200Z,36.01
2022-08-30T09:54:59.117Z,36.55
2022-08-30T10:00:18.726Z,36.29
2022-08-30T10:05:36.222Z,38.46
2022-08-30T10:10:53.937Z,41.20
2022-08-30T10:16:08.681Z,40.84
2022-08-30T10:21:20.316Z,41.94
2022-08-30T10:26:34.411Z,43.23
2022-08-30T10:31:48.409Z,44.64
2022-08-30T10:36:59.601Z,44.99
2022-08-30T10:42:16.404Z,44.31
2022-08-30T10:47:34.590Z,44.89
2022-08-30T10:52:48.547Z,43.69
2022-08-30T10:57:55.082Z,44.08
2022-08-30T11:03:51.540Z,45.35
2022-08-30T11:09:30.818Z,47.89
2022-08-30T11:14:43.303Z,49.02
2022-08-30T11:19:48.631Z,49.10
2022-08-30T11:25:14.273Z,48.84
2022-08-30T11:31:06.644Z,47.96
2022-08-30T11:36:13.091Z,46.51
2022-08-30T11:41:40.857Z,46.38
2022-08-30T11:46:47.743Z,46.56
2022-08-30T11:52:26.934Z,45.79
2022-08-30T11:57:46.903Z,43.68
2022-08-30T12:03:02.047Z,42.48
2022-08-30T12:08:11.048Z,42.24
2022-08-30T12:13:55.499Z,43.72
2022-08-30T12:19:18.767Z,43.94
2022-08-30T12:24:29.355Z,42.10
2022-08-30T12:29:33.789Z,41.76
2022-08-30T12:34:56.300Z,41.40
2022-08-30T12:40:11.694Z,40.12
2022-08-30T12:45:21.983Z,39.19
2022-08-30T12:50:34.882Z,37.88
2022-08-30T12:55:55.861Z,36.65
2022-08-30T13:01:27.285Z,36.29
2022-08-30T13:06:49.337Z,36.02
2022-08-30T13:11:55.238Z,35.58
2022-08-30T13:17:28.691Z,35.72
2022-08-30T13:22:39.279Z,35.73
2022-08-30T13:27:44.211Z,35.68
2022-08-30T13:32:48.545Z,35.72
2022-08-30T13:37:54.274Z,35.42
2022-08-30T13:42:58.982Z,35.31
2022-08-30T13:48:04.196Z,35.28
2022-08-30T13:53:11.172Z,35.19
2022-08-30T13:58:16.691Z,34.98
2022-08-30T14:03:21.200Z,34.89
2022-08-30T14:08:48.156Z,34.04
2022-08-30T14:19:22.410Z,32.99
2022-08-30T14:24:28.348Z,32.41
2022-08-30T14:29:34.003Z,32.11
2022-08-30T14:34:39.702Z,31.51
2022-08-30T14:39:45.898Z,31.39
2022-08-30T14:44:56.645Z,31.31
2022-08-30T14:50:01.909Z,31.32
2022-08-30T14:55:12.734Z,31.30
2022-08-30T15:00:18.354Z,31.19
2022-08-30T15:05:24.399Z,31.06
2022-08-30T15:10:30.509Z,31.12
2022-08-30T15:15:35.495Z,31.43
2022-08-30T15:20:47.624Z,31.27
2022-08-30T15:25:54.400Z,30.92
2022-08-30T15:30:58.946Z,30.74
2022-08-30T15:36:06.108Z,30.40
2022-08-30T15:41:14.017Z,30.46
2022-08-30T15:46:23.520Z,30.57
2022-08-30T15:51:41.463Z,30.38
2022-08-30T15:56:48.226Z,29.98
2022-08-30T16:01:52.951Z,29.81
2022-08-30T16:06:57.446Z,29.54
2022-08-30T16:12:08.388Z,29.27
2022-08-30T16:17:15.165Z,28.98
2022-08-30T16:22:23.344Z,28.89
2022-08-30T16:27:29.203Z,28.81
2022-08-30T16:32:33.599Z,28.55
2022-08-30T16:37:39.183Z,28.52
2022-08-30T16:42:46.173Z,28.01
2022-08-30T16:47:50.925Z,27.69
2022-08-30T16:52:56.834Z,27.40
2022-08-30T16:58:04.511Z,27.21
2022-08-30T17:03:10.565Z,27.03
2022-08-30T17:08:15.314Z,26.71
2022-08-30T17:13:22.745Z,26.52
2022-08-30T17:18:27.652Z,25.96
2022-08-30T17:23:34.368Z,25.48
2022-08-30T17:28:41.696Z,24.70
2022-08-30T17:33:46.356Z,24.38
2022-08-30T17:38:51.182Z,24.00
2022-08-30T17:43:56.932Z,23.76
2022-08-30T17:49:02.029Z,23.62
2022-08-30T17:54:06.939Z,23.38
2022-08-30T17:59:15.426Z,23.08
2022-08-30T18:04:25.041Z,22.84
2022-08-30T18:09:33.870Z,22.70
2022-08-30T18:14:40.370Z,22.31
2022-08-30T18:19:49.397Z,22.16
2022-08-30T18:24:53.784Z,21.88
2022-08-30T18:29:59.477Z,21.77
2022-08-30T18:35:03.793Z,21.68
2022-08-30T18:40:17.005Z,21.69
2022-08-30T18:45:24.507Z,21.76
2022-08-30T18:50:29.576Z,21.81
2022-08-30T18:55:34.016Z,21.84
2022-08-30T19:00:39.933Z,21.92
2022-08-30T19:05:45.021Z,22.03
2022-08-30T19:10:49.820Z,22.12
2022-08-30T19:15:55.937Z,22.14
2022-08-30T19:21:01.080Z,22.23
2022-08-30T19:26:07.353Z,22.45
2022-08-30T19:31:16.784Z,22.51
2022-08-30T19:36:21.592Z,22.56
2022-08-30T19:41:26.157Z,22.65
2022-08-30T19:46:33.102Z,22.63
2022-08-30T19:51:37.865Z,22.71
2022-08-30T19:56:42.664Z,22.67
2022-08-30T20:01:50.208Z,22.38
2022-08-30T20:06:55.140Z,21.65
2022-08-30T20:11:59.590Z,21.12
2022-08-30T20:17:05.938Z,20.85
2022-08-30T20:22:16.557Z,20.81
2022-08-30T20:27:21.153Z,20.88
2022-08-30T20:32:27.843Z,20.88
2022-08-30T20:37:33.329Z,20.61
2022-08-30T20:42:41.471Z,20.60
2022-08-30T20:47:47.306Z,20.23
2022-08-30T20:52:51.687Z,20.11
2022-08-30T20:57:56.407Z,20.11
2022-08-30T21:03:02.366Z,20.04
2022-08-30T21:08:15.500Z,20.02
2022-08-30T21:13:19.971Z,20.03
2022-08-30T21:18:29.538Z,20.05
2022-08-30T21:23:33.922Z,20.03
2022-08-30T21:28:40.124Z,20.03
2022-08-30T21:33:47.669Z,20.01
2022-08-30T21:38:52.648Z,20.01
2022-08-30T21:43:58.428Z,19.94
2022-08-30T21:49:09.619Z,19.89
2022-08-30T21:54:17.063Z,19.87
2022-08-30T21:59:22.676Z,19.81
2022-08-30T22:04:29.466Z,19.74
2022-08-30T22:09:33.934Z,19.71
2022-08-30T22:14:38.721Z,19.62
2022-08-30T22:19:45.049Z,19.59
2022-08-30T22:24:49.925Z,19.60
2022-08-30T22:29:54.379Z,19.52
2022-08-30T22:35:00.075Z,19.47
2022-08-30T22:40:06.829Z,19.45
2022-08-30T22:45:13.242Z,19.40
2022-08-30T22:50:19.544Z,19.41
2022-08-30T22:55:25.081Z,19.46
2022-08-30T23:00:29.508Z,19.47
2022-08-30T23:05:38.636Z,19.42
2022-08-30T23:10:44.409Z,19.41
2022-08-30T23:15:48.752Z,19.39
2022-08-30T23:20:54.637Z,19.30
2022-08-30T23:26:19.544Z,19.35
2022-08-30T23:31:41.768Z,19.25
2022-08-30T23:37:05.267Z,19.21
2022-08-30T23:42:26.790Z,19.23
2022-08-30T23:47:48.713Z,19.19
2022-08-30T23:53:12.112Z,19.04
2022-08-30T23:58:33.951Z,18.95
